sensor_id;sensor_type;location;lat;lon;timestamp;P1;durP1;ratioP1;P2;durP2;ratioP2
18716;SDS011;9487;50.892;6.906;2023-04-25T00:02:12;6.87;;;4.50;;
18716;SDS011;9487;50.892;6.906;2023-04-25T00:04:41;11.03;;;5.20;;
18716;SDS011;9487;50.892;6.906;2023-04-25T00:07:08;11.70;;;5.77;;
18716;SDS011;9487;50.892;6.906;2023-04-25T00:09:35;7.63;;;4.90;;
18716;SDS011;9487;50.892;6.906;2023-04-25T00:12:02;8.13;;;4.87;;
18716;SDS011;9487;50.892;6.906;2023-04-25T00:14:29;12.17;;;5.07;;
18716;SDS011;9487;50.892;6.906;2023-04-25T00:16:58;9.73;;;4.97;;
18716;SDS011;9487;50.892;6.906;2023-04-25T00:19:25;12.27;;;5.40;;
18716;SDS011;9487;50.892;6.906;2023-04-25T00:21:54;16.23;;;4.87;;
18716;SDS011;9487;50.892;6.906;2023-04-25T00:24:21;10.77;;;4.83;;
18716;SDS011;9487;50.892;6.906;2023-04-25T00:26:48;11.70;;;5.37;;
18716;SDS011;9487;50.892;6.906;2023-04-25T00:29:15;8.00;;;4.73;;
18716;SDS011;9487;50.892;6.906;2023-04-25T00:31:42;10.37;;;5.67;;
18716;SDS011;9487;50.892;6.906;2023-04-25T00:34:08;12.63;;;5.40;;
18716;SDS011;9487;50.892;6.906;2023-04-25T00:36:35;10.77;;;5.90;;
18716;SDS011;9487;50.892;6.906;2023-04-25T00:39:04;12.17;;;5.70;;
18716;SDS011;9487;50.892;6.906;2023-04-25T00:41:31;11.83;;;5.90;;
18716;SDS011;9487;50.892;6.906;2023-04-25T00:43:59;8.63;;;5.50;;
18716;SDS011;9487;50.892;6.906;2023-04-25T00:46:26;8.83;;;5.07;;
18716;SDS011;9487;50.892;6.906;2023-04-25T00:48:53;8.47;;;4.93;;
18716;SDS011;9487;50.892;6.906;2023-04-25T00:51:20;9.90;;;5.87;;
18716;SDS011;9487;50.892;6.906;2023-04-25T00:53:47;11.40;;;5.47;;
18716;SDS011;9487;50.892;6.906;2023-04-25T00:56:17;10.57;;;5.30;;
18716;SDS011;9487;50.892;6.906;2023-04-25T00:58:44;10.00;;;5.57;;
18716;SDS011;9487;50.892;6.906;2023-04-25T01:01:11;13.57;;;5.70;;
18716;SDS011;9487;50.892;6.906;2023-04-25T01:03:39;14.00;;;5.90;;
18716;SDS011;9487;50.892;6.906;2023-04-25T01:06:08;13.10;;;6.10;;
18716;SDS011;9487;50.892;6.906;2023-04-25T01:08:36;9.97;;;6.10;;
18716;SDS011;9487;50.892;6.906;2023-04-25T01:11:04;14.27;;;5.93;;
18716;SDS011;9487;50.892;6.906;2023-04-25T01:13:32;12.17;;;5.43;;
18716;SDS011;9487;50.892;6.906;2023-04-25T01:16:00;13.17;;;6.30;;
18716;SDS011;9487;50.892;6.906;2023-04-25T01:18:27;15.33;;;6.00;;
18716;SDS011;9487;50.892;6.906;2023-04-25T01:20:54;16.07;;;6.37;;
18716;SDS011;9487;50.892;6.906;2023-04-25T01:23:23;15.67;;;6.70;;
18716;SDS011;9487;50.892;6.906;2023-04-25T01:25:50;16.23;;;6.60;;
18716;SDS011;9487;50.892;6.906;2023-04-25T01:28:17;12.70;;;6.73;;
18716;SDS011;9487;50.892;6.906;2023-04-25T01:30:44;16.80;;;6.53;;
18716;SDS011;9487;50.892;6.906;2023-04-25T01:33:12;14.17;;;6.20;;
18716;SDS011;9487;50.892;6.906;2023-04-25T01:35:40;14.03;;;6.80;;
18716;SDS011;9487;50.892;6.906;2023-04-25T01:38:07;14.50;;;6.03;;
18716;SDS011;9487;50.892;6.906;2023-04-25T01:40:36;13.60;;;6.93;;
18716;SDS011;9487;50.892;6.906;2023-04-25T01:43:06;11.87;;;6.00;;
18716;SDS011;9487;50.892;6.906;2023-04-25T01:45:36;14.60;;;6.07;;
18716;SDS011;9487;50.892;6.906;2023-04-25T01:48:04;14.13;;;6.13;;
18716;SDS011;9487;50.892;6.906;2023-04-25T01:50:32;16.90;;;6.60;;
18716;SDS011;9487;50.892;6.906;2023-04-25T01:52:59;16.87;;;6.57;;
18716;SDS011;9487;50.892;6.906;2023-04-25T01:55:26;15.07;;;6.60;;
18716;SDS011;9487;50.892;6.906;2023-04-25T01:57:55;17.53;;;6.47;;
18716;SDS011;9487;50.892;6.906;2023-04-25T02:00:22;12.63;;;6.27;;
18716;SDS011;9487;50.892;6.906;2023-04-25T02:02:49;12.80;;;5.97;;
18716;SDS011;9487;50.892;6.906;2023-04-25T02:05:18;15.67;;;6.77;;
18716;SDS011;9487;50.892;6.906;2023-04-25T02:07:45;18.30;;;7.37;;
18716;SDS011;9487;50.892;6.906;2023-04-25T02:10:12;16.60;;;6.27;;
18716;SDS011;9487;50.892;6.906;2023-04-25T02:12:38;14.80;;;6.63;;
18716;SDS011;9487;50.892;6.906;2023-04-25T02:15:07;13.40;;;6.53;;
18716;SDS011;9487;50.892;6.906;2023-04-25T02:17:34;14.63;;;6.53;;
18716;SDS011;9487;50.892;6.906;2023-04-25T02:20:01;16.03;;;7.03;;
18716;SDS011;9487;50.892;6.906;2023-04-25T02:22:28;15.90;;;7.20;;
18716;SDS011;9487;50.892;6.906;2023-04-25T02:24:55;14.33;;;6.17;;
18716;SDS011;9487;50.892;6.906;2023-04-25T02:27:23;13.37;;;6.07;;
18716;SDS011;9487;50.892;6.906;2023-04-25T02:29:49;14.77;;;6.47;;
18716;SDS011;9487;50.892;6.906;2023-04-25T02:32:18;14.53;;;7.13;;
18716;SDS011;9487;50.892;6.906;2023-04-25T02:34:45;19.00;;;6.97;;
18716;SDS011;9487;50.892;6.906;2023-04-25T02:37:13;19.20;;;7.40;;
18716;SDS011;9487;50.892;6.906;2023-04-25T02:39:40;15.20;;;6.60;;
18716;SDS011;9487;50.892;6.906;2023-04-25T02:42:06;12.87;;;6.27;;
18716;SDS011;9487;50.892;6.906;2023-04-25T02:44:33;12.03;;;6.73;;
18716;SDS011;9487;50.892;6.906;2023-04-25T02:47:00;13.53;;;6.23;;
18716;SDS011;9487;50.892;6.906;2023-04-25T02:49:28;11.13;;;6.17;;
18716;SDS011;9487;50.892;6.906;2023-04-25T02:51:55;10.60;;;5.90;;
18716;SDS011;9487;50.892;6.906;2023-04-25T02:54:22;14.93;;;5.57;;
18716;SDS011;9487;50.892;6.906;2023-04-25T02:56:48;15.33;;;5.90;;
18716;SDS011;9487;50.892;6.906;2023-04-25T02:59:15;10.63;;;6.13;;
18716;SDS011;9487;50.892;6.906;2023-04-25T03:01:42;11.40;;;6.13;;
18716;SDS011;9487;50.892;6.906;2023-04-25T03:04:10;13.10;;;6.27;;
18716;SDS011;9487;50.892;6.906;2023-04-25T03:06:38;11.73;;;6.03;;
18716;SDS011;9487;50.892;6.906;2023-04-25T03:09:05;13.97;;;5.77;;
18716;SDS011;9487;50.892;6.906;2023-04-25T03:11:32;11.97;;;6.10;;
18716;SDS011;9487;50.892;6.906;2023-04-25T03:13:59;10.73;;;5.33;;
18716;SDS011;9487;50.892;6.906;2023-04-25T03:16:25;13.00;;;5.43;;
18716;SDS011;9487;50.892;6.906;2023-04-25T03:18:52;12.80;;;5.17;;
18716;SDS011;9487;50.892;6.906;2023-04-25T03:21:19;11.10;;;5.83;;
18716;SDS011;9487;50.892;6.906;2023-04-25T03:23:47;8.93;;;5.03;;
18716;SDS011;9487;50.892;6.906;2023-04-25T03:26:14;14.77;;;6.07;;
18716;SDS011;9487;50.892;6.906;2023-04-25T03:28:41;12.83;;;5.80;;
18716;SDS011;9487;50.892;6.906;2023-04-25T03:31:08;11.80;;;5.73;;
18716;SDS011;9487;50.892;6.906;2023-04-25T03:33:35;9.47;;;5.20;;
18716;SDS011;9487;50.892;6.906;2023-04-25T03:36:02;14.27;;;5.27;;
18716;SDS011;9487;50.892;6.906;2023-04-25T03:38:29;11.67;;;5.90;;
18716;SDS011;9487;50.892;6.906;2023-04-25T03:40:57;12.73;;;6.13;;
18716;SDS011;9487;50.892;6.906;2023-04-25T03:43:24;15.13;;;5.60;;
18716;SDS011;9487;50.892;6.906;2023-04-25T03:45:50;12.27;;;5.53;;
18716;SDS011;9487;50.892;6.906;2023-04-25T03:48:17;17.73;;;5.80;;
18716;SDS011;9487;50.892;6.906;2023-04-25T03:50:46;12.63;;;5.73;;
18716;SDS011;9487;50.892;6.906;2023-04-25T03:53:13;11.07;;;5.50;;
18716;SDS011;9487;50.892;6.906;2023-04-25T03:55:41;12.53;;;5.77;;
18716;SDS011;9487;50.892;6.906;2023-04-25T12:43:21;4.00;;;2.20;;
18716;SDS011;9487;50.892;6.906;2023-04-25T12:45:48;6.43;;;2.20;;
18716;SDS011;9487;50.892;6.906;2023-04-25T12:48:16;5.17;;;2.40;;
18716;SDS011;9487;50.892;6.906;2023-04-25T12:50:43;4.83;;;2.20;;
18716;SDS011;9487;50.892;6.906;2023-04-25T12:53:10;3.63;;;1.83;;
18716;SDS011;9487;50.892;6.906;2023-04-25T12:55:37;6.33;;;2.43;;
18716;SDS011;9487;50.892;6.906;2023-04-25T12:58:04;3.93;;;1.90;;
18716;SDS011;9487;50.892;6.906;2023-04-25T13:00:33;4.10;;;1.83;;
18716;SDS011;9487;50.892;6.906;2023-04-25T13:02:59;4.50;;;2.17;;
18716;SDS011;9487;50.892;6.906;2023-04-25T13:05:27;3.67;;;1.97;;
18716;SDS011;9487;50.892;6.906;2023-04-25T13:07:58;5.97;;;2.00;;
18716;SDS011;9487;50.892;6.906;2023-04-25T13:10:25;7.57;;;2.10;;
18716;SDS011;9487;50.892;6.906;2023-04-25T13:12:52;6.60;;;2.20;;
18716;SDS011;9487;50.892;6.906;2023-04-25T13:15:19;5.93;;;2.30;;
18716;SDS011;9487;50.892;6.906;2023-04-25T13:17:48;6.70;;;2.10;;
18716;SDS011;9487;50.892;6.906;2023-04-25T13:20:15;5.30;;;2.20;;
18716;SDS011;9487;50.892;6.906;2023-04-25T13:22:43;10.60;;;2.50;;
18716;SDS011;9487;50.892;6.906;2023-04-25T13:25:10;3.93;;;1.97;;
18716;SDS011;9487;50.892;6.906;2023-04-25T13:27:38;10.17;;;2.60;;
18716;SDS011;9487;50.892;6.906;2023-04-25T13:30:06;3.63;;;2.00;;
18716;SDS011;9487;50.892;6.906;2023-04-25T13:32:33;3.87;;;1.93;;
18716;SDS011;9487;50.892;6.906;2023-04-25T13:35:04;4.03;;;2.17;;
18716;SDS011;9487;50.892;6.906;2023-04-25T13:37:32;4.33;;;2.00;;
18716;SDS011;9487;50.892;6.906;2023-04-25T13:39:59;3.47;;;2.27;;
18716;SDS011;9487;50.892;6.906;2023-04-25T13:42:29;4.73;;;2.30;;
18716;SDS011;9487;50.892;6.906;2023-04-25T13:44:55;4.73;;;2.07;;
18716;SDS011;9487;50.892;6.906;2023-04-25T13:47:22;3.47;;;2.10;;
18716;SDS011;9487;50.892;6.906;2023-04-25T13:49:49;6.03;;;2.20;;
18716;SDS011;9487;50.892;6.906;2023-04-25T13:52:17;4.37;;;2.23;;
18716;SDS011;9487;50.892;6.906;2023-04-25T13:54:44;6.53;;;2.57;;
18716;SDS011;9487;50.892;6.906;2023-04-25T13:57:11;5.43;;;2.10;;
18716;SDS011;9487;50.892;6.906;2023-04-25T13:59:38;3.53;;;2.10;;
18716;SDS011;9487;50.892;6.906;2023-04-25T14:02:05;2.07;;;1.40;;
18716;SDS011;9487;50.892;6.906;2023-04-25T14:04:33;3.20;;;1.60;;
18716;SDS011;9487;50.892;6.906;2023-04-25T14:07:00;2.53;;;1.40;;
18716;SDS011;9487;50.892;6.906;2023-04-25T14:09:28;2.43;;;1.53;;
18716;SDS011;9487;50.892;6.906;2023-04-25T14:11:55;2.27;;;1.40;;
18716;SDS011;9487;50.892;6.906;2023-04-25T14:14:22;3.83;;;1.60;;
18716;SDS011;9487;50.892;6.906;2023-04-25T14:16:50;3.47;;;1.53;;
18716;SDS011;9487;50.892;6.906;2023-04-25T14:19:19;2.90;;;1.73;;
18716;SDS011;9487;50.892;6.906;2023-04-25T14:21:46;3.80;;;1.63;;
18716;SDS011;9487;50.892;6.906;2023-04-25T14:24:13;3.53;;;1.53;;
18716;SDS011;9487;50.892;6.906;2023-04-25T14:26:42;2.53;;;1.90;;
18716;SDS011;9487;50.892;6.906;2023-04-25T14:29:09;3.60;;;1.53;;
18716;SDS011;9487;50.892;6.906;2023-04-25T14:31:37;4.10;;;1.87;;
18716;SDS011;9487;50.892;6.906;2023-04-25T14:34:05;2.90;;;1.43;;
18716;SDS011;9487;50.892;6.906;2023-04-25T14:36:32;2.20;;;1.27;;
18716;SDS011;9487;50.892;6.906;2023-04-25T14:38:59;3.13;;;1.30;;
18716;SDS011;9487;50.892;6.906;2023-04-25T14:41:26;3.07;;;1.00;;
18716;SDS011;9487;50.892;6.906;2023-04-25T14:43:54;3.00;;;1.20;;
18716;SDS011;9487;50.892;6.906;2023-04-25T14:46:22;3.20;;;1.30;;
18716;SDS011;9487;50.892;6.906;2023-04-25T14:48:48;4.97;;;1.40;;
18716;SDS011;9487;50.892;6.906;2023-04-25T14:51:16;2.03;;;1.10;;
18716;SDS011;9487;50.892;6.906;2023-04-25T14:53:42;3.07;;;1.50;;
18716;SDS011;9487;50.892;6.906;2023-04-25T14:56:09;4.50;;;1.23;;
18716;SDS011;9487;50.892;6.906;2023-04-25T14:58:37;2.47;;;1.30;;
18716;SDS011;9487;50.892;6.906;2023-04-25T15:01:06;2.27;;;1.23;;
18716;SDS011;9487;50.892;6.906;2023-04-25T15:03:34;3.53;;;1.60;;
18716;SDS011;9487;50.892;6.906;2023-04-25T15:06:00;4.70;;;1.70;;
18716;SDS011;9487;50.892;6.906;2023-04-25T15:08:27;4.43;;;1.80;;
18716;SDS011;9487;50.892;6.906;2023-04-25T15:10:57;2.70;;;1.23;;
18716;SDS011;9487;50.892;6.906;2023-04-25T15:13:23;2.93;;;1.73;;
18716;SDS011;9487;50.892;6.906;2023-04-25T15:15:51;3.70;;;1.60;;
18716;SDS011;9487;50.892;6.906;2023-04-25T15:18:21;3.20;;;1.73;;
18716;SDS011;9487;50.892;6.906;2023-04-25T15:20:48;3.53;;;2.00;;
18716;SDS011;9487;50.892;6.906;2023-04-25T15:23:16;3.30;;;1.60;;
18716;SDS011;9487;50.892;6.906;2023-04-25T15:25:43;4.37;;;1.80;;
18716;SDS011;9487;50.892;6.906;2023-04-25T15:28:10;2.77;;;1.80;;
18716;SDS011;9487;50.892;6.906;2023-04-25T15:30:38;5.40;;;1.80;;
18716;SDS011;9487;50.892;6.906;2023-04-25T15:33:05;3.60;;;1.93;;
18716;SDS011;9487;50.892;6.906;2023-04-25T15:35:33;3.93;;;2.00;;
18716;SDS011;9487;50.892;6.906;2023-04-25T15:38:00;3.13;;;1.60;;
18716;SDS011;9487;50.892;6.906;2023-04-25T15:40:27;3.20;;;1.50;;
18716;SDS011;9487;50.892;6.906;2023-04-25T15:42:54;4.27;;;1.50;;
18716;SDS011;9487;50.892;6.906;2023-04-25T15:45:22;3.20;;;1.40;;
18716;SDS011;9487;50.892;6.906;2023-04-25T15:47:51;4.17;;;1.80;;
18716;SDS011;9487;50.892;6.906;2023-04-25T15:50:20;2.90;;;1.47;;
18716;SDS011;9487;50.892;6.906;2023-04-25T15:52:48;2.43;;;1.53;;
18716;SDS011;9487;50.892;6.906;2023-04-25T15:55:16;4.03;;;1.90;;
18716;SDS011;9487;50.892;6.906;2023-04-25T15:57:45;3.97;;;1.67;;
18716;SDS011;9487;50.892;6.906;2023-04-25T16:00:15;5.73;;;1.60;;
18716;SDS011;9487;50.892;6.906;2023-04-25T16:02:43;3.17;;;1.50;;
18716;SDS011;9487;50.892;6.906;2023-04-25T16:05:12;5.77;;;1.90;;
18716;SDS011;9487;50.892;6.906;2023-04-25T16:07:39;4.15;;;1.83;;
18716;SDS011;9487;50.892;6.906;2023-04-25T16:10:09;2.77;;;1.53;;
18716;SDS011;9487;50.892;6.906;2023-04-25T16:12:37;3.90;;;1.87;;
18716;SDS011;9487;50.892;6.906;2023-04-25T16:15:04;3.50;;;1.60;;
18716;SDS011;9487;50.892;6.906;2023-04-25T16:17:32;5.63;;;1.73;;
18716;SDS011;9487;50.892;6.906;2023-04-25T16:20:00;3.37;;;1.60;;
18716;SDS011;9487;50.892;6.906;2023-04-25T16:22:33;3.53;;;1.30;;
18716;SDS011;9487;50.892;6.906;2023-04-25T16:25:00;2.37;;;1.53;;
18716;SDS011;9487;50.892;6.906;2023-04-25T16:27:28;3.83;;;1.87;;
18716;SDS011;9487;50.892;6.906;2023-04-25T16:29:55;3.03;;;1.30;;
18716;SDS011;9487;50.892;6.906;2023-04-25T16:32:22;4.40;;;1.47;;
18716;SDS011;9487;50.892;6.906;2023-04-25T16:34:49;4.20;;;1.60;;
18716;SDS011;9487;50.892;6.906;2023-04-25T16:37:15;3.57;;;1.60;;
18716;SDS011;9487;50.892;6.906;2023-04-25T16:39:42;3.50;;;1.87;;
18716;SDS011;9487;50.892;6.906;2023-04-25T16:42:09;4.60;;;1.77;;
18716;SDS011;9487;50.892;6.906;2023-04-25T16:44:38;5.53;;;2.03;;
18716;SDS011;9487;50.892;6.906;2023-04-25T16:47:04;3.17;;;1.77;;
18716;SDS011;9487;50.892;6.906;2023-04-25T16:49:31;3.30;;;1.60;;
18716;SDS011;9487;50.892;6.906;2023-04-25T16:51:58;3.20;;;1.83;;
18716;SDS011;9487;50.892;6.906;2023-04-25T16:54:25;4.80;;;1.80;;
18716;SDS011;9487;50.892;6.906;2023-04-25T16:56:52;6.07;;;1.83;;
18716;SDS011;9487;50.892;6.906;2023-04-25T16:59:19;4.00;;;1.60;;
18716;SDS011;9487;50.892;6.906;2023-04-25T17:01:47;7.07;;;1.80;;
18716;SDS011;9487;50.892;6.906;2023-04-25T17:04:14;4.00;;;2.00;;
18716;SDS011;9487;50.892;6.906;2023-04-25T17:06:41;3.37;;;1.80;;
18716;SDS011;9487;50.892;6.906;2023-04-25T17:09:08;3.13;;;1.67;;
18716;SDS011;9487;50.892;6.906;2023-04-25T17:11:36;5.03;;;1.83;;
18716;SDS011;9487;50.892;6.906;2023-04-25T17:14:03;5.63;;;2.20;;
18716;SDS011;9487;50.892;6.906;2023-04-25T17:16:33;3.87;;;1.50;;
18716;SDS011;9487;50.892;6.906;2023-04-25T17:19:02;3.30;;;1.53;;
18716;SDS011;9487;50.892;6.906;2023-04-25T17:21:29;4.40;;;1.70;;
18716;SDS011;9487;50.892;6.906;2023-04-25T17:23:57;3.47;;;1.77;;
18716;SDS011;9487;50.892;6.906;2023-04-25T17:26:24;5.97;;;1.73;;
18716;SDS011;9487;50.892;6.906;2023-04-25T17:28:51;5.33;;;1.87;;
18716;SDS011;9487;50.892;6.906;2023-04-25T17:31:18;3.20;;;1.57;;
18716;SDS011;9487;50.892;6.906;2023-04-25T17:33:45;3.57;;;1.37;;
18716;SDS011;9487;50.892;6.906;2023-04-25T17:36:14;3.63;;;1.30;;
18716;SDS011;9487;50.892;6.906;2023-04-25T17:38:42;5.10;;;1.50;;
18716;SDS011;9487;50.892;6.906;2023-04-25T17:41:09;4.50;;;2.00;;
18716;SDS011;9487;50.892;6.906;2023-04-25T17:43:37;3.43;;;1.60;;
18716;SDS011;9487;50.892;6.906;2023-04-25T17:46:06;3.63;;;1.20;;
18716;SDS011;9487;50.892;6.906;2023-04-25T17:48:33;4.00;;;1.80;;
18716;SDS011;9487;50.892;6.906;2023-04-25T17:51:00;4.20;;;1.87;;
18716;SDS011;9487;50.892;6.906;2023-04-25T17:53:29;3.57;;;1.77;;
18716;SDS011;9487;50.892;6.906;2023-04-25T17:55:57;6.23;;;1.80;;
18716;SDS011;9487;50.892;6.906;2023-04-25T17:58:25;6.63;;;2.10;;
18716;SDS011;9487;50.892;6.906;2023-04-25T18:00:53;5.27;;;1.87;;
18716;SDS011;9487;50.892;6.906;2023-04-25T18:03:21;3.60;;;1.80;;
18716;SDS011;9487;50.892;6.906;2023-04-25T18:05:48;4.20;;;1.83;;
18716;SDS011;9487;50.892;6.906;2023-04-25T18:08:15;2.63;;;1.77;;
18716;SDS011;9487;50.892;6.906;2023-04-25T18:10:43;5.73;;;1.67;;
18716;SDS011;9487;50.892;6.906;2023-04-25T18:13:11;2.53;;;1.50;;
18716;SDS011;9487;50.892;6.906;2023-04-25T18:15:38;9.07;;;2.10;;
18716;SDS011;9487;50.892;6.906;2023-04-25T18:18:05;2.57;;;1.37;;
18716;SDS011;9487;50.892;6.906;2023-04-25T18:20:39;3.07;;;1.53;;
18716;SDS011;9487;50.892;6.906;2023-04-25T18:23:06;3.00;;;1.97;;
18716;SDS011;9487;50.892;6.906;2023-04-25T18:25:34;5.03;;;1.43;;
18716;SDS011;9487;50.892;6.906;2023-04-25T18:28:03;6.23;;;1.70;;
18716;SDS011;9487;50.892;6.906;2023-04-25T18:30:31;4.40;;;1.50;;
18716;SDS011;9487;50.892;6.906;2023-04-25T18:32:59;3.10;;;1.70;;
18716;SDS011;9487;50.892;6.906;2023-04-25T18:35:27;8.73;;;1.80;;
18716;SDS011;9487;50.892;6.906;2023-04-25T18:37:54;4.77;;;1.43;;
18716;SDS011;9487;50.892;6.906;2023-04-25T18:40:20;3.63;;;1.57;;
18716;SDS011;9487;50.892;6.906;2023-04-25T18:42:49;5.63;;;1.70;;
18716;SDS011;9487;50.892;6.906;2023-04-25T18:45:18;5.13;;;1.80;;
18716;SDS011;9487;50.892;6.906;2023-04-25T18:47:45;3.97;;;1.50;;
18716;SDS011;9487;50.892;6.906;2023-04-25T18:50:12;7.20;;;1.93;;
18716;SDS011;9487;50.892;6.906;2023-04-25T18:52:39;6.30;;;2.03;;
18716;SDS011;9487;50.892;6.906;2023-04-25T18:55:07;4.33;;;1.60;;
18716;SDS011;9487;50.892;6.906;2023-04-25T18:57:35;5.83;;;1.77;;
18716;SDS011;9487;50.892;6.906;2023-04-25T19:00:02;3.87;;;1.67;;
18716;SDS011;9487;50.892;6.906;2023-04-25T19:02:32;4.00;;;1.83;;
18716;SDS011;9487;50.892;6.906;2023-04-25T19:05:00;5.07;;;2.00;;
18716;SDS011;9487;50.892;6.906;2023-04-25T19:07:27;6.23;;;1.50;;
18716;SDS011;9487;50.892;6.906;2023-04-25T19:09:56;4.27;;;1.90;;
18716;SDS011;9487;50.892;6.906;2023-04-25T19:12:25;2.30;;;1.73;;
18716;SDS011;9487;50.892;6.906;2023-04-25T19:14:52;3.33;;;1.33;;
18716;SDS011;9487;50.892;6.906;2023-04-25T19:17:19;3.70;;;1.30;;
18716;SDS011;9487;50.892;6.906;2023-04-25T19:19:50;3.67;;;1.60;;
18716;SDS011;9487;50.892;6.906;2023-04-25T19:22:19;2.70;;;1.40;;
18716;SDS011;9487;50.892;6.906;2023-04-25T19:24:47;3.77;;;1.57;;
18716;SDS011;9487;50.892;6.906;2023-04-25T19:27:15;4.30;;;1.70;;
18716;SDS011;9487;50.892;6.906;2023-04-25T19:29:42;3.30;;;1.67;;
18716;SDS011;9487;50.892;6.906;2023-04-25T19:32:12;4.20;;;1.40;;
18716;SDS011;9487;50.892;6.906;2023-04-25T19:34:39;5.77;;;1.90;;
18716;SDS011;9487;50.892;6.906;2023-04-25T19:37:07;4.43;;;1.80;;
18716;SDS011;9487;50.892;6.906;2023-04-25T19:39:36;5.83;;;1.80;;
18716;SDS011;9487;50.892;6.906;2023-04-25T19:42:03;4.47;;;1.83;;
18716;SDS011;9487;50.892;6.906;2023-04-25T19:44:36;5.43;;;2.00;;
18716;SDS011;9487;50.892;6.906;2023-04-25T19:47:04;3.93;;;1.60;;
18716;SDS011;9487;50.892;6.906;2023-04-25T19:49:32;8.20;;;2.03;;
18716;SDS011;9487;50.892;6.906;2023-04-25T19:52:00;3.93;;;1.60;;
18716;SDS011;9487;50.892;6.906;2023-04-25T19:54:29;5.23;;;2.00;;
18716;SDS011;9487;50.892;6.906;2023-04-25T19:56:56;5.73;;;2.10;;
18716;SDS011;9487;50.892;6.906;2023-04-25T19:59:23;6.40;;;2.00;;
18716;SDS011;9487;50.892;6.906;2023-04-25T20:01:50;3.43;;;1.87;;
18716;SDS011;9487;50.892;6.906;2023-04-25T20:04:17;5.80;;;1.90;;
18716;SDS011;9487;50.892;6.906;2023-04-25T20:06:44;5.63;;;2.00;;
18716;SDS011;9487;50.892;6.906;2023-04-25T20:09:11;3.83;;;1.80;;
18716;SDS011;9487;50.892;6.906;2023-04-25T20:11:42;4.17;;;2.00;;
18716;SDS011;9487;50.892;6.906;2023-04-25T20:14:09;4.67;;;2.00;;
18716;SDS011;9487;50.892;6.906;2023-04-25T20:16:37;3.63;;;2.20;;
18716;SDS011;9487;50.892;6.906;2023-04-25T20:19:06;4.63;;;2.03;;
18716;SDS011;9487;50.892;6.906;2023-04-25T20:21:34;4.57;;;2.00;;
18716;SDS011;9487;50.892;6.906;2023-04-25T20:24:01;3.20;;;1.73;;
18716;SDS011;9487;50.892;6.906;2023-04-25T20:26:29;6.10;;;1.97;;
18716;SDS011;9487;50.892;6.906;2023-04-25T20:29:00;3.70;;;2.03;;
18716;SDS011;9487;50.892;6.906;2023-04-25T20:31:28;3.17;;;2.27;;
18716;SDS011;9487;50.892;6.906;2023-04-25T20:34:00;8.20;;;2.03;;
18716;SDS011;9487;50.892;6.906;2023-04-25T20:36:29;5.57;;;2.03;;
18716;SDS011;9487;50.892;6.906;2023-04-25T20:38:59;4.33;;;2.00;;
18716;SDS011;9487;50.892;6.906;2023-04-25T20:41:26;3.77;;;1.83;;
18716;SDS011;9487;50.892;6.906;2023-04-25T20:43:54;4.13;;;2.10;;
18716;SDS011;9487;50.892;6.906;2023-04-25T20:46:24;8.23;;;2.53;;
18716;SDS011;9487;50.892;6.906;2023-04-25T20:48:51;6.03;;;2.10;;
18716;SDS011;9487;50.892;6.906;2023-04-25T20:51:18;6.77;;;2.63;;
18716;SDS011;9487;50.892;6.906;2023-04-25T20:53:47;5.53;;;2.40;;
18716;SDS011;9487;50.892;6.906;2023-04-25T20:56:15;4.77;;;2.33;;
18716;SDS011;9487;50.892;6.906;2023-04-25T20:58:43;10.30;;;3.43;;
18716;SDS011;9487;50.892;6.906;2023-04-25T21:01:10;6.73;;;2.30;;
18716;SDS011;9487;50.892;6.906;2023-04-25T21:03:41;7.37;;;2.97;;
18716;SDS011;9487;50.892;6.906;2023-04-25T21:06:08;3.93;;;2.40;;
18716;SDS011;9487;50.892;6.906;2023-04-25T21:08:36;5.20;;;2.20;;
18716;SDS011;9487;50.892;6.906;2023-04-25T21:11:03;6.90;;;2.57;;
18716;SDS011;9487;50.892;6.906;2023-04-25T21:13:33;4.47;;;2.20;;
18716;SDS011;9487;50.892;6.906;2023-04-25T21:16:02;5.80;;;2.30;;
18716;SDS011;9487;50.892;6.906;2023-04-25T21:18:30;4.13;;;2.40;;
18716;SDS011;9487;50.892;6.906;2023-04-25T21:21:01;5.60;;;2.50;;
18716;SDS011;9487;50.892;6.906;2023-04-25T21:23:29;5.77;;;2.37;;
18716;SDS011;9487;50.892;6.906;2023-04-25T21:25:57;6.43;;;2.97;;
18716;SDS011;9487;50.892;6.906;2023-04-25T21:28:26;7.10;;;2.90;;
18716;SDS011;9487;50.892;6.906;2023-04-25T21:30:53;7.77;;;2.80;;
18716;SDS011;9487;50.892;6.906;2023-04-25T21:33:21;6.60;;;2.80;;
18716;SDS011;9487;50.892;6.906;2023-04-25T21:35:48;8.03;;;3.00;;
18716;SDS011;9487;50.892;6.906;2023-04-25T21:38:16;6.43;;;3.67;;
18716;SDS011;9487;50.892;6.906;2023-04-25T21:40:43;7.83;;;3.60;;
18716;SDS011;9487;50.892;6.906;2023-04-25T21:43:10;7.03;;;3.03;;
18716;SDS011;9487;50.892;6.906;2023-04-25T21:45:37;7.27;;;2.77;;
18716;SDS011;9487;50.892;6.906;2023-04-25T21:48:05;6.77;;;2.50;;
18716;SDS011;9487;50.892;6.906;2023-04-25T21:50:32;4.67;;;2.23;;
18716;SDS011;9487;50.892;6.906;2023-04-25T21:53:00;4.87;;;2.57;;
18716;SDS011;9487;50.892;6.906;2023-04-25T21:55:30;4.07;;;2.37;;
18716;SDS011;9487;50.892;6.906;2023-04-25T21:57:57;7.53;;;2.30;;
18716;SDS011;9487;50.892;6.906;2023-04-25T22:00:24;4.70;;;2.20;;
18716;SDS011;9487;50.892;6.906;2023-04-25T22:02:52;5.57;;;2.20;;
18716;SDS011;9487;50.892;6.906;2023-04-25T22:05:19;6.70;;;2.50;;
18716;SDS011;9487;50.892;6.906;2023-04-25T22:07:47;6.00;;;2.50;;
18716;SDS011;9487;50.892;6.906;2023-04-25T22:10:17;5.10;;;2.33;;
18716;SDS011;9487;50.892;6.906;2023-04-25T22:12:46;9.47;;;2.53;;
18716;SDS011;9487;50.892;6.906;2023-04-25T22:15:15;4.43;;;2.00;;
18716;SDS011;9487;50.892;6.906;2023-04-25T22:17:43;4.13;;;2.07;;
18716;SDS011;9487;50.892;6.906;2023-04-25T22:20:11;6.07;;;2.30;;
18716;SDS011;9487;50.892;6.906;2023-04-25T22:22:38;5.80;;;2.40;;
18716;SDS011;9487;50.892;6.906;2023-04-25T22:25:06;2.73;;;2.03;;
18716;SDS011;9487;50.892;6.906;2023-04-25T22:27:33;4.07;;;1.93;;
18716;SDS011;9487;50.892;6.906;2023-04-25T22:30:02;7.20;;;2.30;;
18716;SDS011;9487;50.892;6.906;2023-04-25T22:32:29;5.17;;;2.10;;
18716;SDS011;9487;50.892;6.906;2023-04-25T22:34:56;8.13;;;2.50;;
18716;SDS011;9487;50.892;6.906;2023-04-25T22:37:23;6.33;;;2.27;;
18716;SDS011;9487;50.892;6.906;2023-04-25T22:39:49;5.37;;;2.27;;
18716;SDS011;9487;50.892;6.906;2023-04-25T22:42:16;4.57;;;2.27;;
18716;SDS011;9487;50.892;6.906;2023-04-25T22:44:44;3.33;;;1.93;;
18716;SDS011;9487;50.892;6.906;2023-04-25T22:47:12;5.53;;;2.60;;
18716;SDS011;9487;50.892;6.906;2023-04-25T22:49:48;5.67;;;2.00;;
18716;SDS011;9487;50.892;6.906;2023-04-25T22:52:15;5.07;;;2.33;;
18716;SDS011;9487;50.892;6.906;2023-04-25T22:54:42;6.57;;;2.13;;
18716;SDS011;9487;50.892;6.906;2023-04-25T22:57:09;4.77;;;2.10;;
18716;SDS011;9487;50.892;6.906;2023-04-25T22:59:36;8.63;;;2.33;;
18716;SDS011;9487;50.892;6.906;2023-04-25T23:02:03;5.90;;;2.10;;
18716;SDS011;9487;50.892;6.906;2023-04-25T23:04:32;6.07;;;2.40;;
18716;SDS011;9487;50.892;6.906;2023-04-25T23:07:01;7.10;;;2.13;;
18716;SDS011;9487;50.892;6.906;2023-04-25T23:09:29;6.23;;;2.10;;
18716;SDS011;9487;50.892;6.906;2023-04-25T23:11:56;8.70;;;2.63;;
18716;SDS011;9487;50.892;6.906;2023-04-25T23:14:24;4.80;;;2.40;;
18716;SDS011;9487;50.892;6.906;2023-04-25T23:16:51;6.87;;;2.37;;
18716;SDS011;9487;50.892;6.906;2023-04-25T23:19:19;7.27;;;2.50;;
18716;SDS011;9487;50.892;6.906;2023-04-25T23:21:47;4.10;;;2.17;;
18716;SDS011;9487;50.892;6.906;2023-04-25T23:24:14;4.90;;;2.30;;
18716;SDS011;9487;50.892;6.906;2023-04-25T23:26:41;5.07;;;2.20;;
18716;SDS011;9487;50.892;6.906;2023-04-25T23:29:08;5.27;;;2.00;;
18716;SDS011;9487;50.892;6.906;2023-04-25T23:31:35;4.73;;;2.10;;
18716;SDS011;9487;50.892;6.906;2023-04-25T23:34:02;7.00;;;2.23;;
18716;SDS011;9487;50.892;6.906;2023-04-25T23:36:28;6.23;;;2.57;;
18716;SDS011;9487;50.892;6.906;2023-04-25T23:38:57;6.47;;;2.87;;
18716;SDS011;9487;50.892;6.906;2023-04-25T23:41:26;4.93;;;2.30;;
18716;SDS011;9487;50.892;6.906;2023-04-25T23:43:52;7.03;;;2.63;;
18716;SDS011;9487;50.892;6.906;2023-04-25T23:46:21;6.03;;;3.10;;